Terminal Aerodrome Forecast
Issued by NWS Pocatello, ID

Home | Current Version | Previous Version | Text Only | Print | Product List | Glossary On
Versions: 1 2 3 4 5 6 7 8 9 10 11 12 13 14 15
000
FTUS45 KPIH 241124
TAFBYI
TAF
KBYI 241124Z 2412/2512 15006KT P6SM SKC
     FM241600 20009KT P6SM SCT200
     FM242000 18012G22KT P6SM SCT080 OVC120
     FM250400 22009KT 6SM -RA BKN020 OVC050=

USA.gov is the U.S. government's official web portal to all federal, state and local government web resources and services.